sensor_id;sensor_type;location;lat;lon;timestamp;P1;durP1;ratioP1;P2;durP2;ratioP2
68365;SDS011;55283;51.466;5.478;2022-10-15T00:00:53;4.37;;;3.93;;
68365;SDS011;55283;51.466;5.478;2022-10-15T00:03:29;5.20;;;4.50;;
68365;SDS011;55283;51.466;5.478;2022-10-15T00:05:54;4.33;;;3.90;;
68365;SDS011;55283;51.466;5.478;2022-10-15T00:08:20;5.23;;;4.20;;
68365;SDS011;55283;51.466;5.478;2022-10-15T00:10:45;4.75;;;3.92;;
68365;SDS011;55283;51.466;5.478;2022-10-15T00:13:10;4.67;;;4.17;;
68365;SDS011;55283;51.466;5.478;2022-10-15T00:15:36;4.80;;;4.30;;
68365;SDS011;55283;51.466;5.478;2022-10-15T00:18:01;4.80;;;4.00;;
68365;SDS011;55283;51.466;5.478;2022-10-15T00:20:27;4.93;;;4.38;;
68365;SDS011;55283;51.466;5.478;2022-10-15T00:22:52;4.80;;;4.20;;
68365;SDS011;55283;51.466;5.478;2022-10-15T00:25:18;5.73;;;4.20;;
68365;SDS011;55283;51.466;5.478;2022-10-15T00:27:43;4.57;;;4.00;;
68365;SDS011;55283;51.466;5.478;2022-10-15T00:30:09;4.68;;;4.18;;
68365;SDS011;55283;51.466;5.478;2022-10-15T00:32:34;5.30;;;4.17;;
68365;SDS011;55283;51.466;5.478;2022-10-15T00:35:00;4.82;;;4.00;;
68365;SDS011;55283;51.466;5.478;2022-10-15T00:37:25;4.57;;;4.10;;
68365;SDS011;55283;51.466;5.478;2022-10-15T00:39:50;4.83;;;4.20;;
68365;SDS011;55283;51.466;5.478;2022-10-15T00:42:16;4.83;;;4.10;;
68365;SDS011;55283;51.466;5.478;2022-10-15T00:44:46;4.90;;;4.20;;
68365;SDS011;55283;51.466;5.478;2022-10-15T00:47:16;4.82;;;4.00;;
68365;SDS011;55283;51.466;5.478;2022-10-15T00:49:52;4.47;;;3.90;;
68365;SDS011;55283;51.466;5.478;2022-10-15T00:52:24;4.82;;;4.30;;
68365;SDS011;55283;51.466;5.478;2022-10-15T00:54:56;4.45;;;4.00;;
68365;SDS011;55283;51.466;5.478;2022-10-15T00:57:25;4.57;;;4.07;;
68365;SDS011;55283;51.466;5.478;2022-10-15T00:59:51;4.95;;;3.85;;
68365;SDS011;55283;51.466;5.478;2022-10-15T01:02:21;5.03;;;3.88;;
68365;SDS011;55283;51.466;5.478;2022-10-15T01:04:47;5.70;;;4.00;;
68365;SDS011;55283;51.466;5.478;2022-10-15T01:07:13;4.78;;;4.20;;
68365;SDS011;55283;51.466;5.478;2022-10-15T01:09:39;4.90;;;3.77;;
68365;SDS011;55283;51.466;5.478;2022-10-15T01:12:07;4.65;;;3.92;;
68365;SDS011;55283;51.466;5.478;2022-10-15T01:14:50;5.40;;;4.28;;
68365;SDS011;55283;51.466;5.478;2022-10-15T01:31:17;5.35;;;4.20;;
68365;SDS011;55283;51.466;5.478;2022-10-15T01:38:55;4.70;;;4.20;;
68365;SDS011;55283;51.466;5.478;2022-10-15T01:41:30;4.45;;;4.00;;
68365;SDS011;55283;51.466;5.478;2022-10-15T01:44:22;4.38;;;3.70;;
68365;SDS011;55283;51.466;5.478;2022-10-15T01:47:05;5.00;;;3.93;;
68365;SDS011;55283;51.466;5.478;2022-10-15T01:49:41;4.38;;;3.63;;
68365;SDS011;55283;51.466;5.478;2022-10-15T01:52:15;4.88;;;3.60;;
68365;SDS011;55283;51.466;5.478;2022-10-15T01:54:48;4.03;;;3.50;;
68365;SDS011;55283;51.466;5.478;2022-10-15T01:57:16;4.83;;;4.00;;
68365;SDS011;55283;51.466;5.478;2022-10-15T01:59:44;4.65;;;3.67;;
68365;SDS011;55283;51.466;5.478;2022-10-15T02:02:09;5.80;;;3.70;;
68365;SDS011;55283;51.466;5.478;2022-10-15T02:04:35;4.30;;;3.60;;
68365;SDS011;55283;51.466;5.478;2022-10-15T02:07:24;4.78;;;3.97;;
68365;SDS011;55283;51.466;5.478;2022-10-15T02:17:55;4.13;;;3.60;;
68365;SDS011;55283;51.466;5.478;2022-10-15T02:20:22;4.75;;;3.60;;
68365;SDS011;55283;51.466;5.478;2022-10-15T02:22:58;4.50;;;3.40;;
68365;SDS011;55283;51.466;5.478;2022-10-15T02:25:28;3.88;;;3.47;;
68365;SDS011;55283;51.466;5.478;2022-10-15T02:27:55;4.83;;;3.57;;
68365;SDS011;55283;51.466;5.478;2022-10-15T02:30:22;4.13;;;3.55;;
68365;SDS011;55283;51.466;5.478;2022-10-15T02:32:53;4.80;;;3.55;;
68365;SDS011;55283;51.466;5.478;2022-10-15T02:35:22;4.17;;;3.30;;
68365;SDS011;55283;51.466;5.478;2022-10-15T02:37:49;5.30;;;3.30;;
68365;SDS011;55283;51.466;5.478;2022-10-15T02:40:19;4.28;;;3.40;;
68365;SDS011;55283;51.466;5.478;2022-10-15T02:42:48;4.17;;;3.70;;
68365;SDS011;55283;51.466;5.478;2022-10-15T02:45:14;3.47;;;3.17;;
68365;SDS011;55283;51.466;5.478;2022-10-15T02:47:40;3.90;;;3.50;;
68365;SDS011;55283;51.466;5.478;2022-10-15T02:50:05;3.40;;;3.10;;
68365;SDS011;55283;51.466;5.478;2022-10-15T02:52:31;3.73;;;3.27;;
68365;SDS011;55283;51.466;5.478;2022-10-15T02:54:56;4.50;;;3.40;;
68365;SDS011;55283;51.466;5.478;2022-10-15T02:57:22;4.37;;;3.40;;
68365;SDS011;55283;51.466;5.478;2022-10-15T02:59:47;3.47;;;2.97;;
68365;SDS011;55283;51.466;5.478;2022-10-15T03:02:12;4.00;;;3.40;;
68365;SDS011;55283;51.466;5.478;2022-10-15T03:04:38;4.00;;;3.60;;
68365;SDS011;55283;51.466;5.478;2022-10-15T03:07:03;3.73;;;3.13;;
68365;SDS011;55283;51.466;5.478;2022-10-15T03:09:29;4.37;;;3.13;;
68365;SDS011;55283;51.466;5.478;2022-10-15T03:11:54;3.80;;;3.13;;
68365;SDS011;55283;51.466;5.478;2022-10-15T03:14:19;3.60;;;3.30;;
68365;SDS011;55283;51.466;5.478;2022-10-15T03:16:45;3.83;;;3.37;;
68365;SDS011;55283;51.466;5.478;2022-10-15T03:19:10;3.50;;;3.10;;
68365;SDS011;55283;51.466;5.478;2022-10-15T03:21:36;3.73;;;3.33;;
68365;SDS011;55283;51.466;5.478;2022-10-15T03:24:01;3.38;;;3.08;;
68365;SDS011;55283;51.466;5.478;2022-10-15T03:26:27;3.67;;;2.90;;
68365;SDS011;55283;51.466;5.478;2022-10-15T03:28:52;4.17;;;3.10;;
68365;SDS011;55283;51.466;5.478;2022-10-15T03:31:18;3.53;;;3.10;;
68365;SDS011;55283;51.466;5.478;2022-10-15T03:33:43;3.97;;;3.10;;
68365;SDS011;55283;51.466;5.478;2022-10-15T03:36:09;3.30;;;3.00;;
68365;SDS011;55283;51.466;5.478;2022-10-15T03:38:34;3.70;;;3.03;;
68365;SDS011;55283;51.466;5.478;2022-10-15T03:40:59;3.27;;;2.97;;
68365;SDS011;55283;51.466;5.478;2022-10-15T03:43:25;3.13;;;2.83;;
68365;SDS011;55283;51.466;5.478;2022-10-15T03:45:51;3.30;;;2.80;;
68365;SDS011;55283;51.466;5.478;2022-10-15T03:48:17;4.18;;;3.10;;
68365;SDS011;55283;51.466;5.478;2022-10-15T03:50:44;3.53;;;3.00;;
68365;SDS011;55283;51.466;5.478;2022-10-15T03:53:09;3.45;;;3.10;;
68365;SDS011;55283;51.466;5.478;2022-10-15T03:55:35;3.03;;;2.73;;
68365;SDS011;55283;51.466;5.478;2022-10-15T03:58:00;4.37;;;3.27;;
68365;SDS011;55283;51.466;5.478;2022-10-15T04:00:26;3.43;;;3.10;;
68365;SDS011;55283;51.466;5.478;2022-10-15T04:02:52;3.42;;;3.13;;
68365;SDS011;55283;51.466;5.478;2022-10-15T04:05:17;3.30;;;3.00;;
68365;SDS011;55283;51.466;5.478;2022-10-15T04:07:43;3.40;;;2.77;;
68365;SDS011;55283;51.466;5.478;2022-10-15T04:10:09;3.08;;;2.75;;
68365;SDS011;55283;51.466;5.478;2022-10-15T04:12:34;3.30;;;3.00;;
68365;SDS011;55283;51.466;5.478;2022-10-15T04:15:00;3.75;;;2.97;;
68365;SDS011;55283;51.466;5.478;2022-10-15T04:17:25;3.30;;;2.87;;
68365;SDS011;55283;51.466;5.478;2022-10-15T04:19:51;3.70;;;3.00;;
68365;SDS011;55283;51.466;5.478;2022-10-15T04:22:17;3.60;;;2.83;;
68365;SDS011;55283;51.466;5.478;2022-10-15T04:24:42;3.38;;;3.05;;
68365;SDS011;55283;51.466;5.478;2022-10-15T04:27:08;2.80;;;2.60;;
68365;SDS011;55283;51.466;5.478;2022-10-15T04:29:33;3.33;;;2.73;;
68365;SDS011;55283;51.466;5.478;2022-10-15T04:31:59;3.70;;;2.95;;
68365;SDS011;55283;51.466;5.478;2022-10-15T04:34:24;3.87;;;3.10;;
68365;SDS011;55283;51.466;5.478;2022-10-15T04:36:49;3.83;;;3.17;;
68365;SDS011;55283;51.466;5.478;2022-10-15T04:39:15;4.30;;;3.23;;
68365;SDS011;55283;51.466;5.478;2022-10-15T04:41:40;4.13;;;3.20;;
68365;SDS011;55283;51.466;5.478;2022-10-15T04:44:06;3.63;;;3.20;;
68365;SDS011;55283;51.466;5.478;2022-10-15T04:46:31;3.77;;;3.43;;
68365;SDS011;55283;51.466;5.478;2022-10-15T04:48:57;3.40;;;3.10;;
68365;SDS011;55283;51.466;5.478;2022-10-15T04:51:23;4.27;;;3.37;;
68365;SDS011;55283;51.466;5.478;2022-10-15T04:53:49;3.90;;;3.53;;
68365;SDS011;55283;51.466;5.478;2022-10-15T04:56:17;4.27;;;3.20;;
68365;SDS011;55283;51.466;5.478;2022-10-15T04:58:45;3.78;;;3.38;;
68365;SDS011;55283;51.466;5.478;2022-10-15T05:01:13;4.72;;;3.30;;
68365;SDS011;55283;51.466;5.478;2022-10-15T05:03:40;3.83;;;3.20;;
68365;SDS011;55283;51.466;5.478;2022-10-15T05:06:12;3.47;;;3.17;;
68365;SDS011;55283;51.466;5.478;2022-10-15T05:08:39;3.58;;;3.28;;
68365;SDS011;55283;51.466;5.478;2022-10-15T05:11:09;3.63;;;3.10;;
68365;SDS011;55283;51.466;5.478;2022-10-15T05:13:36;3.83;;;3.07;;
68365;SDS011;55283;51.466;5.478;2022-10-15T05:16:09;3.50;;;3.20;;
68365;SDS011;55283;51.466;5.478;2022-10-15T05:18:37;3.30;;;3.00;;
68365;SDS011;55283;51.466;5.478;2022-10-15T05:21:04;3.33;;;3.03;;
68365;SDS011;55283;51.466;5.478;2022-10-15T05:23:29;3.30;;;3.00;;
68365;SDS011;55283;51.466;5.478;2022-10-15T05:25:58;3.53;;;3.20;;
68365;SDS011;55283;51.466;5.478;2022-10-15T05:28:24;3.20;;;2.90;;
68365;SDS011;55283;51.466;5.478;2022-10-15T05:30:49;3.40;;;3.10;;
68365;SDS011;55283;51.466;5.478;2022-10-15T05:33:15;3.23;;;2.83;;
68365;SDS011;55283;51.466;5.478;2022-10-15T05:35:40;3.33;;;3.00;;
68365;SDS011;55283;51.466;5.478;2022-10-15T05:38:06;3.30;;;3.00;;
68365;SDS011;55283;51.466;5.478;2022-10-15T05:40:31;3.50;;;3.20;;
68365;SDS011;55283;51.466;5.478;2022-10-15T05:42:57;3.37;;;3.07;;
68365;SDS011;55283;51.466;5.478;2022-10-15T05:45:22;3.73;;;3.37;;
68365;SDS011;55283;51.466;5.478;2022-10-15T05:47:47;3.53;;;3.23;;
68365;SDS011;55283;51.466;5.478;2022-10-15T05:50:13;3.87;;;3.23;;
68365;SDS011;55283;51.466;5.478;2022-10-15T05:52:39;3.65;;;3.30;;
68365;SDS011;55283;51.466;5.478;2022-10-15T05:55:04;4.03;;;3.60;;
68365;SDS011;55283;51.466;5.478;2022-10-15T05:57:30;3.30;;;2.80;;
68365;SDS011;55283;51.466;5.478;2022-10-15T05:59:55;3.80;;;3.33;;
68365;SDS011;55283;51.466;5.478;2022-10-15T06:02:20;3.30;;;3.00;;
68365;SDS011;55283;51.466;5.478;2022-10-15T06:04:46;3.93;;;3.30;;
68365;SDS011;55283;51.466;5.478;2022-10-15T06:07:12;3.78;;;3.40;;
68365;SDS011;55283;51.466;5.478;2022-10-15T06:09:38;4.77;;;3.10;;
68365;SDS011;55283;51.466;5.478;2022-10-15T06:12:03;3.70;;;3.30;;
68365;SDS011;55283;51.466;5.478;2022-10-15T06:14:28;4.03;;;3.13;;
68365;SDS011;55283;51.466;5.478;2022-10-15T06:16:54;3.35;;;3.05;;
68365;SDS011;55283;51.466;5.478;2022-10-15T06:19:19;3.60;;;3.30;;
68365;SDS011;55283;51.466;5.478;2022-10-15T06:21:45;4.20;;;3.38;;
68365;SDS011;55283;51.466;5.478;2022-10-15T06:24:11;3.30;;;3.00;;
68365;SDS011;55283;51.466;5.478;2022-10-15T06:26:36;3.80;;;3.40;;
68365;SDS011;55283;51.466;5.478;2022-10-15T06:29:02;3.50;;;3.20;;
68365;SDS011;55283;51.466;5.478;2022-10-15T06:31:27;3.90;;;3.13;;
68365;SDS011;55283;51.466;5.478;2022-10-15T06:33:53;3.80;;;3.43;;
68365;SDS011;55283;51.466;5.478;2022-10-15T06:36:18;3.53;;;3.23;;
68365;SDS011;55283;51.466;5.478;2022-10-15T06:38:45;3.70;;;3.20;;
68365;SDS011;55283;51.466;5.478;2022-10-15T06:41:11;4.80;;;3.40;;
68365;SDS011;55283;51.466;5.478;2022-10-15T06:43:36;4.03;;;3.30;;
68365;SDS011;55283;51.466;5.478;2022-10-15T06:46:02;4.20;;;3.40;;
68365;SDS011;55283;51.466;5.478;2022-10-15T06:48:29;3.60;;;2.92;;
68365;SDS011;55283;51.466;5.478;2022-10-15T06:50:56;3.50;;;3.20;;
68365;SDS011;55283;51.466;5.478;2022-10-15T06:53:23;3.47;;;3.17;;
68365;SDS011;55283;51.466;5.478;2022-10-15T06:55:48;3.20;;;2.90;;
68365;SDS011;55283;51.466;5.478;2022-10-15T06:58:14;3.83;;;3.30;;
68365;SDS011;55283;51.466;5.478;2022-10-15T07:00:39;3.37;;;3.07;;
68365;SDS011;55283;51.466;5.478;2022-10-15T07:03:05;3.10;;;2.80;;
68365;SDS011;55283;51.466;5.478;2022-10-15T07:05:31;4.00;;;2.80;;
68365;SDS011;55283;51.466;5.478;2022-10-15T07:07:58;3.10;;;2.80;;
68365;SDS011;55283;51.466;5.478;2022-10-15T07:10:24;2.70;;;2.50;;
68365;SDS011;55283;51.466;5.478;2022-10-15T07:12:50;4.10;;;2.92;;
68365;SDS011;55283;51.466;5.478;2022-10-15T07:15:16;3.20;;;2.90;;
68365;SDS011;55283;51.466;5.478;2022-10-15T07:17:46;3.30;;;3.00;;
68365;SDS011;55283;51.466;5.478;2022-10-15T07:20:13;3.17;;;2.88;;
68365;SDS011;55283;51.466;5.478;2022-10-15T07:22:38;3.00;;;2.70;;
68365;SDS011;55283;51.466;5.478;2022-10-15T07:25:04;3.37;;;3.00;;
68365;SDS011;55283;51.466;5.478;2022-10-15T07:27:29;3.07;;;2.77;;
68365;SDS011;55283;51.466;5.478;2022-10-15T07:29:55;2.97;;;2.77;;
68365;SDS011;55283;51.466;5.478;2022-10-15T07:32:20;3.17;;;2.80;;
68365;SDS011;55283;51.466;5.478;2022-10-15T07:34:46;2.97;;;2.70;;
68365;SDS011;55283;51.466;5.478;2022-10-15T07:37:11;3.13;;;2.83;;
68365;SDS011;55283;51.466;5.478;2022-10-15T07:39:36;3.37;;;3.00;;
68365;SDS011;55283;51.466;5.478;2022-10-15T07:42:02;2.80;;;2.60;;
68365;SDS011;55283;51.466;5.478;2022-10-15T07:44:27;3.00;;;2.70;;
68365;SDS011;55283;51.466;5.478;2022-10-15T07:46:53;2.80;;;2.50;;
68365;SDS011;55283;51.466;5.478;2022-10-15T07:49:18;3.13;;;2.83;;
68365;SDS011;55283;51.466;5.478;2022-10-15T07:51:43;3.20;;;2.90;;
68365;SDS011;55283;51.466;5.478;2022-10-15T07:54:09;2.83;;;2.63;;
68365;SDS011;55283;51.466;5.478;2022-10-15T07:56:34;2.78;;;2.58;;
68365;SDS011;55283;51.466;5.478;2022-10-15T07:59:00;3.30;;;2.97;;
68365;SDS011;55283;51.466;5.478;2022-10-15T08:01:25;2.70;;;2.50;;
68365;SDS011;55283;51.466;5.478;2022-10-15T08:03:50;2.97;;;2.67;;
68365;SDS011;55283;51.466;5.478;2022-10-15T08:06:16;3.03;;;2.72;;
68365;SDS011;55283;51.466;5.478;2022-10-15T08:08:43;3.13;;;2.77;;
68365;SDS011;55283;51.466;5.478;2022-10-15T08:11:13;2.95;;;2.67;;
68365;SDS011;55283;51.466;5.478;2022-10-15T08:13:40;2.97;;;2.60;;
68365;SDS011;55283;51.466;5.478;2022-10-15T08:16:06;2.73;;;2.53;;
68365;SDS011;55283;51.466;5.478;2022-10-15T08:18:36;2.70;;;2.50;;
68365;SDS011;55283;51.466;5.478;2022-10-15T08:21:03;3.38;;;2.45;;
68365;SDS011;55283;51.466;5.478;2022-10-15T08:23:30;2.60;;;2.13;;
68365;SDS011;55283;51.466;5.478;2022-10-15T08:25:58;2.50;;;2.30;;
68365;SDS011;55283;51.466;5.478;2022-10-15T08:28:25;2.67;;;2.20;;
68365;SDS011;55283;51.466;5.478;2022-10-15T08:30:51;2.50;;;2.20;;
68365;SDS011;55283;51.466;5.478;2022-10-15T08:33:17;2.42;;;2.22;;
68365;SDS011;55283;51.466;5.478;2022-10-15T08:35:42;2.57;;;2.37;;
68365;SDS011;55283;51.466;5.478;2022-10-15T08:38:09;3.13;;;2.20;;
68365;SDS011;55283;51.466;5.478;2022-10-15T08:40:35;2.45;;;2.25;;
68365;SDS011;55283;51.466;5.478;2022-10-15T08:43:01;2.77;;;2.30;;
68365;SDS011;55283;51.466;5.478;2022-10-15T08:45:39;3.10;;;2.30;;
68365;SDS011;55283;51.466;5.478;2022-10-15T08:48:13;2.50;;;2.30;;
68365;SDS011;55283;51.466;5.478;2022-10-15T08:53:36;2.50;;;2.10;;
68365;SDS011;55283;51.466;5.478;2022-10-15T08:59:00;2.40;;;2.10;;
68365;SDS011;55283;51.466;5.478;2022-10-15T09:01:49;2.30;;;2.10;;
68365;SDS011;55283;51.466;5.478;2022-10-15T09:04:31;2.67;;;2.17;;
68365;SDS011;55283;51.466;5.478;2022-10-15T09:07:13;2.10;;;1.90;;
68365;SDS011;55283;51.466;5.478;2022-10-15T09:09:55;2.83;;;2.40;;
68365;SDS011;55283;51.466;5.478;2022-10-15T09:15:13;2.58;;;2.00;;
68365;SDS011;55283;51.466;5.478;2022-10-15T09:17:42;2.53;;;2.03;;
68365;SDS011;55283;51.466;5.478;2022-10-15T09:20:13;2.40;;;2.20;;
68365;SDS011;55283;51.466;5.478;2022-10-15T09:22:42;2.05;;;1.85;;
68365;SDS011;55283;51.466;5.478;2022-10-15T09:25:16;2.20;;;2.00;;
68365;SDS011;55283;51.466;5.478;2022-10-15T09:27:44;2.10;;;1.90;;
68365;SDS011;55283;51.466;5.478;2022-10-15T09:30:26;1.98;;;1.77;;
68365;SDS011;55283;51.466;5.478;2022-10-15T09:33:20;2.20;;;2.00;;
68365;SDS011;55283;51.466;5.478;2022-10-15T09:35:57;2.00;;;1.90;;
68365;SDS011;55283;51.466;5.478;2022-10-15T09:41:05;2.38;;;1.92;;
68365;SDS011;55283;51.466;5.478;2022-10-15T09:43:56;2.13;;;1.80;;
68365;SDS011;55283;51.466;5.478;2022-10-15T09:46:25;2.33;;;2.10;;
68365;SDS011;55283;51.466;5.478;2022-10-15T09:48:58;2.20;;;1.95;;
68365;SDS011;55283;51.466;5.478;2022-10-15T09:52:06;2.10;;;1.90;;
68365;SDS011;55283;51.466;5.478;2022-10-15T09:57:22;1.90;;;1.52;;
68365;SDS011;55283;51.466;5.478;2022-10-15T09:59:56;2.00;;;1.80;;
68365;SDS011;55283;51.466;5.478;2022-10-15T10:02:25;2.10;;;1.90;;
68365;SDS011;55283;51.466;5.478;2022-10-15T10:04:51;2.15;;;1.60;;
68365;SDS011;55283;51.466;5.478;2022-10-15T10:07:50;1.87;;;1.73;;
68365;SDS011;55283;51.466;5.478;2022-10-15T10:12:49;1.77;;;1.67;;
68365;SDS011;55283;51.466;5.478;2022-10-15T10:15:35;1.80;;;1.70;;
68365;SDS011;55283;51.466;5.478;2022-10-15T10:18:05;1.80;;;1.70;;
68365;SDS011;55283;51.466;5.478;2022-10-15T10:20:51;2.47;;;1.75;;
68365;SDS011;55283;51.466;5.478;2022-10-15T10:23:23;2.40;;;1.70;;
68365;SDS011;55283;51.466;5.478;2022-10-15T10:25:55;2.13;;;1.80;;
68365;SDS011;55283;51.466;5.478;2022-10-15T10:33:55;1.90;;;1.50;;
68365;SDS011;55283;51.466;5.478;2022-10-15T10:36:33;1.60;;;1.50;;
68365;SDS011;55283;51.466;5.478;2022-10-15T10:39:01;1.73;;;1.57;;
68365;SDS011;55283;51.466;5.478;2022-10-15T10:41:49;1.60;;;1.50;;
68365;SDS011;55283;51.466;5.478;2022-10-15T10:44:50;2.20;;;1.50;;
68365;SDS011;55283;51.466;5.478;2022-10-15T10:47:24;1.53;;;1.40;;
68365;SDS011;55283;51.466;5.478;2022-10-15T10:49:51;2.42;;;1.48;;
68365;SDS011;55283;51.466;5.478;2022-10-15T10:54:52;1.50;;;1.40;;
68365;SDS011;55283;51.466;5.478;2022-10-15T11:00:06;1.60;;;1.50;;
68365;SDS011;55283;51.466;5.478;2022-10-15T11:02:36;1.52;;;1.42;;
68365;SDS011;55283;51.466;5.478;2022-10-15T11:05:05;1.30;;;1.20;;
68365;SDS011;55283;51.466;5.478;2022-10-15T11:07:38;1.75;;;1.42;;
68365;SDS011;55283;51.466;5.478;2022-10-15T11:10:18;1.50;;;1.40;;
68365;SDS011;55283;51.466;5.478;2022-10-15T11:15:56;1.50;;;1.40;;
68365;SDS011;55283;51.466;5.478;2022-10-15T11:21:56;1.40;;;1.30;;
68365;SDS011;55283;51.466;5.478;2022-10-15T11:29:57;1.20;;;1.10;;
68365;SDS011;55283;51.466;5.478;2022-10-15T11:38:07;1.90;;;1.38;;
68365;SDS011;55283;51.466;5.478;2022-10-15T11:51:29;1.65;;;1.20;;
68365;SDS011;55283;51.466;5.478;2022-10-15T11:56:39;2.57;;;1.13;;
68365;SDS011;55283;51.466;5.478;2022-10-15T12:02:19;3.73;;;1.20;;
68365;SDS011;55283;51.466;5.478;2022-10-15T12:04:51;2.92;;;1.10;;
68365;SDS011;55283;51.466;5.478;2022-10-15T12:07:24;1.30;;;1.20;;
68365;SDS011;55283;51.466;5.478;2022-10-15T12:09:56;1.50;;;1.10;;
68365;SDS011;55283;51.466;5.478;2022-10-15T12:12:48;1.65;;;1.10;;
68365;SDS011;55283;51.466;5.478;2022-10-15T12:15:49;1.50;;;1.17;;
68365;SDS011;55283;51.466;5.478;2022-10-15T12:21:21;2.00;;;1.00;;
68365;SDS011;55283;51.466;5.478;2022-10-15T12:23:58;1.95;;;1.00;;
68365;SDS011;55283;51.466;5.478;2022-10-15T12:28:50;4.63;;;1.10;;
68365;SDS011;55283;51.466;5.478;2022-10-15T12:31:17;2.17;;;0.90;;
68365;SDS011;55283;51.466;5.478;2022-10-15T12:33:49;1.05;;;0.90;;
68365;SDS011;55283;51.466;5.478;2022-10-15T12:38:58;1.70;;;0.80;;
68365;SDS011;55283;51.466;5.478;2022-10-15T12:41:59;2.65;;;1.00;;
68365;SDS011;55283;51.466;5.478;2022-10-15T12:44:27;2.13;;;1.00;;
68365;SDS011;55283;51.466;5.478;2022-10-15T12:46:58;1.20;;;1.00;;
68365;SDS011;55283;51.466;5.478;2022-10-15T12:51:56;4.18;;;1.00;;
68365;SDS011;55283;51.466;5.478;2022-10-15T12:59:55;2.78;;;1.00;;
68365;SDS011;55283;51.466;5.478;2022-10-15T13:04:57;5.57;;;0.90;;
68365;SDS011;55283;51.466;5.478;2022-10-15T13:07:22;1.40;;;0.93;;
68365;SDS011;55283;51.466;5.478;2022-10-15T13:09:48;3.50;;;0.90;;
68365;SDS011;55283;51.466;5.478;2022-10-15T13:12:20;0.90;;;0.90;;
68365;SDS011;55283;51.466;5.478;2022-10-15T13:14:56;0.80;;;0.80;;
68365;SDS011;55283;51.466;5.478;2022-10-15T13:17:28;3.58;;;1.00;;
68365;SDS011;55283;51.466;5.478;2022-10-15T13:22:24;2.27;;;0.80;;
68365;SDS011;55283;51.466;5.478;2022-10-15T13:24:53;1.30;;;0.80;;
68365;SDS011;55283;51.466;5.478;2022-10-15T13:27:32;0.90;;;0.90;;
68365;SDS011;55283;51.466;5.478;2022-10-15T13:32:47;1.48;;;1.00;;
68365;SDS011;55283;51.466;5.478;2022-10-15T13:35:30;4.80;;;0.90;;
68365;SDS011;55283;51.466;5.478;2022-10-15T13:38:01;3.38;;;1.00;;
68365;SDS011;55283;51.466;5.478;2022-10-15T13:40:28;2.75;;;0.90;;
68365;SDS011;55283;51.466;5.478;2022-10-15T13:43:05;2.13;;;0.93;;
68365;SDS011;55283;51.466;5.478;2022-10-15T13:45:45;1.23;;;0.90;;
68365;SDS011;55283;51.466;5.478;2022-10-15T13:48:18;2.83;;;1.00;;
68365;SDS011;55283;51.466;5.478;2022-10-15T13:50:46;2.20;;;1.03;;
68365;SDS011;55283;51.466;5.478;2022-10-15T13:53:48;2.72;;;0.90;;
68365;SDS011;55283;51.466;5.478;2022-10-15T13:56:20;3.25;;;0.98;;
68365;SDS011;55283;51.466;5.478;2022-10-15T13:58:47;1.75;;;0.95;;
68365;SDS011;55283;51.466;5.478;2022-10-15T14:01:14;2.30;;;1.00;;
68365;SDS011;55283;51.466;5.478;2022-10-15T14:03:47;2.72;;;1.00;;
68365;SDS011;55283;51.466;5.478;2022-10-15T14:06:18;2.90;;;1.10;;
68365;SDS011;55283;51.466;5.478;2022-10-15T14:08:58;1.92;;;1.00;;
68365;SDS011;55283;51.466;5.478;2022-10-15T14:11:25;1.30;;;0.90;;
68365;SDS011;55283;51.466;5.478;2022-10-15T14:13:52;0.80;;;0.80;;
68365;SDS011;55283;51.466;5.478;2022-10-15T14:18:58;2.85;;;1.00;;
68365;SDS011;55283;51.466;5.478;2022-10-15T14:21:34;3.93;;;1.00;;
68365;SDS011;55283;51.466;5.478;2022-10-15T14:24:22;1.25;;;0.90;;
68365;SDS011;55283;51.466;5.478;2022-10-15T14:26:47;1.35;;;1.00;;
68365;SDS011;55283;51.466;5.478;2022-10-15T14:29:56;6.93;;;1.45;;
68365;SDS011;55283;51.466;5.478;2022-10-15T14:34:55;2.28;;;0.95;;
68365;SDS011;55283;51.466;5.478;2022-10-15T14:42:29;1.52;;;0.80;;
68365;SDS011;55283;51.466;5.478;2022-10-15T14:44:56;1.83;;;0.80;;
68365;SDS011;55283;51.466;5.478;2022-10-15T14:47:57;0.97;;;0.80;;
68365;SDS011;55283;51.466;5.478;2022-10-15T14:50:26;1.95;;;1.00;;
68365;SDS011;55283;51.466;5.478;2022-10-15T14:52:54;0.80;;;0.80;;
68365;SDS011;55283;51.466;5.478;2022-10-15T14:57:47;1.33;;;1.00;;
68365;SDS011;55283;51.466;5.478;2022-10-15T15:03:00;1.27;;;0.87;;
68365;SDS011;55283;51.466;5.478;2022-10-15T15:05:28;1.13;;;0.80;;
68365;SDS011;55283;51.466;5.478;2022-10-15T15:07:54;2.15;;;0.90;;
68365;SDS011;55283;51.466;5.478;2022-10-15T15:10:24;2.25;;;0.73;;
68365;SDS011;55283;51.466;5.478;2022-10-15T15:12:52;1.20;;;0.80;;
68365;SDS011;55283;51.466;5.478;2022-10-15T15:15:20;1.48;;;0.80;;
68365;SDS011;55283;51.466;5.478;2022-10-15T15:17:47;1.77;;;0.80;;
68365;SDS011;55283;51.466;5.478;2022-10-15T15:20:13;1.33;;;0.70;;
68365;SDS011;55283;51.466;5.478;2022-10-15T15:22:39;1.27;;;0.80;;
68365;SDS011;55283;51.466;5.478;2022-10-15T15:25:15;1.30;;;0.85;;
68365;SDS011;55283;51.466;5.478;2022-10-15T15:28:01;1.60;;;0.80;;
68365;SDS011;55283;51.466;5.478;2022-10-15T15:30:28;1.88;;;0.90;;
68365;SDS011;55283;51.466;5.478;2022-10-15T15:32:55;1.40;;;0.80;;
68365;SDS011;55283;51.466;5.478;2022-10-15T15:35:37;4.10;;;0.80;;
68365;SDS011;55283;51.466;5.478;2022-10-15T15:38:17;1.83;;;0.80;;
68365;SDS011;55283;51.466;5.478;2022-10-15T15:40:44;1.02;;;0.90;;
68365;SDS011;55283;51.466;5.478;2022-10-15T15:43:13;2.43;;;0.67;;
68365;SDS011;55283;51.466;5.478;2022-10-15T15:45:40;1.65;;;0.90;;
68365;SDS011;55283;51.466;5.478;2022-10-15T15:48:06;2.30;;;0.80;;
68365;SDS011;55283;51.466;5.478;2022-10-15T15:50:32;1.77;;;0.80;;
68365;SDS011;55283;51.466;5.478;2022-10-15T15:52:59;2.58;;;0.75;;
68365;SDS011;55283;51.466;5.478;2022-10-15T15:55:25;4.63;;;0.85;;
68365;SDS011;55283;51.466;5.478;2022-10-15T15:57:50;3.07;;;0.93;;
68365;SDS011;55283;51.466;5.478;2022-10-15T16:00:16;1.75;;;0.77;;
68365;SDS011;55283;51.466;5.478;2022-10-15T16:02:42;2.03;;;0.80;;
68365;SDS011;55283;51.466;5.478;2022-10-15T16:05:10;0.80;;;0.77;;
68365;SDS011;55283;51.466;5.478;2022-10-15T16:07:38;3.33;;;0.82;;
68365;SDS011;55283;51.466;5.478;2022-10-15T16:10:03;3.93;;;0.90;;
68365;SDS011;55283;51.466;5.478;2022-10-15T16:12:32;4.55;;;0.90;;
68365;SDS011;55283;51.466;5.478;2022-10-15T16:14:58;1.53;;;0.73;;
68365;SDS011;55283;51.466;5.478;2022-10-15T16:17:24;3.08;;;1.10;;
68365;SDS011;55283;51.466;5.478;2022-10-15T16:19:49;1.83;;;0.70;;
68365;SDS011;55283;51.466;5.478;2022-10-15T16:22:15;1.73;;;0.90;;
68365;SDS011;55283;51.466;5.478;2022-10-15T16:24:40;1.15;;;0.80;;
68365;SDS011;55283;51.466;5.478;2022-10-15T16:27:06;2.67;;;1.00;;
68365;SDS011;55283;51.466;5.478;2022-10-15T16:29:31;1.50;;;0.87;;
68365;SDS011;55283;51.466;5.478;2022-10-15T16:31:56;1.33;;;0.90;;
68365;SDS011;55283;51.466;5.478;2022-10-15T16:34:22;1.30;;;0.80;;
68365;SDS011;55283;51.466;5.478;2022-10-15T16:36:49;2.83;;;0.90;;
68365;SDS011;55283;51.466;5.478;2022-10-15T16:39:14;1.33;;;0.90;;
68365;SDS011;55283;51.466;5.478;2022-10-15T16:41:40;2.37;;;1.07;;
68365;SDS011;55283;51.466;5.478;2022-10-15T16:44:05;3.07;;;0.87;;
68365;SDS011;55283;51.466;5.478;2022-10-15T16:46:31;1.85;;;0.80;;
68365;SDS011;55283;51.466;5.478;2022-10-15T16:48:56;2.73;;;0.97;;
68365;SDS011;55283;51.466;5.478;2022-10-15T16:51:23;1.10;;;1.00;;
68365;SDS011;55283;51.466;5.478;2022-10-15T16:53:49;3.70;;;0.90;;
68365;SDS011;55283;51.466;5.478;2022-10-15T16:56:17;1.85;;;0.88;;
68365;SDS011;55283;51.466;5.478;2022-10-15T16:58:45;1.55;;;0.90;;
68365;SDS011;55283;51.466;5.478;2022-10-15T17:01:12;3.33;;;1.10;;
68365;SDS011;55283;51.466;5.478;2022-10-15T17:03:40;1.58;;;0.90;;
68365;SDS011;55283;51.466;5.478;2022-10-15T17:06:08;2.75;;;1.00;;
68365;SDS011;55283;51.466;5.478;2022-10-15T17:08:39;1.63;;;1.00;;